Elmhurst, Pennsylvania
Current Conditions -  °F | °C
As of 10:10 AM on Thursday 18 Dec 2014 (Local Time) from KAVP Reporting Station
Overcast Overcast  
Wind Chill: -5°   Ceiling: 3000
Heat Index:   Visibility: 10mi
Dew Point: -6°   Wind: 16mph
Humidity: 61%   Direction: 310°NW
Pressure: 30.02"   Gusts: 26mph
Location:  41.38°N, 75.54°W
Report Text: KAVP 181510Z 31014G23KT 10SM BKN030 OVC040 01/M06 A3002 RMK AO2 T00111056
Loading
Personal Weather Stations






























Interactive Weather Map New forecast layout! Learn more

10-Day Weather Forecast

Advertisements
Track Severe Weather on mobile